Time;durP1;ratioP1;P1;durP2;ratioP2;P2;SDS_P1;SDS_P2;PMS_P1;PMS_P2;Temp;Humidity;BMP_temperature;BMP_pressure;BME280_temperature;BME280_humidity;BME280_pressure;Samples;Min_cycle;Max_cycle;Signal;HPM_P1;HPM_P2
2022/07/25 00:01:48;;;;;;;7.63;6.80;;;20.10;77.40;;;;;;5035273;28;20592;-86
2022/07/25 00:04:13;;;;;;;11.60;7.75;;;20.10;77.50;;;;;;5052982;28;20246;-85
2022/07/25 00:06:40;;;;;;;9.50;7.95;;;20.10;77.50;;;;;;5035010;28;20199;-86
2022/07/25 00:09:06;;;;;;;12.90;8.13;;;20.00;78.80;;;;;;5053389;28;20168;-86
2022/07/25 00:11:31;;;;;;;8.98;8.18;;;20.00;78.90;;;;;;5053126;28;20164;-85
2022/07/25 00:13:57;;;;;;;10.63;7.90;;;20.00;78.70;;;;;;5052957;28;20195;-86
2022/07/25 00:16:23;;;;;;;9.70;7.50;;;20.00;78.60;;;;;;5035075;28;20164;-86
2022/07/25 00:18:48;;;;;;;10.75;7.90;;;20.00;78.70;;;;;;5034986;28;20253;-86
2022/07/25 00:21:14;;;;;;;8.23;7.43;;;20.00;79.00;;;;;;5035266;28;20172;-86
2022/07/25 00:23:39;;;;;;;12.57;8.38;;;20.10;79.20;;;;;;5034955;28;20226;-85
2022/07/25 00:26:05;;;;;;;18.35;9.02;;;20.00;78.90;;;;;;5035045;28;20280;-86
2022/07/25 00:28:31;;;;;;;15.32;8.70;;;19.80;79.20;;;;;;5035239;28;20754;-86
2022/07/25 00:30:56;;;;;;;10.18;8.23;;;19.80;79.40;;;;;;5052591;28;20172;-86
2022/07/25 00:33:22;;;;;;;13.07;8.93;;;19.80;79.40;;;;;;5052625;28;20184;-86
2022/07/25 00:35:47;;;;;;;9.98;8.98;;;19.70;79.30;;;;;;5034916;28;20207;-85
2022/07/25 00:38:13;;;;;;;9.52;8.27;;;19.70;79.30;;;;;;5034849;28;20199;-86
2022/07/25 00:40:38;;;;;;;9.50;8.60;;;19.70;79.20;;;;;;5037899;28;20180;-86
2022/07/25 00:43:04;;;;;;;11.63;9.10;;;19.70;79.30;;;;;;5038663;28;20172;-86
2022/07/25 00:45:30;;;;;;;11.02;8.45;;;19.60;79.30;;;;;;5038355;28;20719;-86
2022/07/25 00:47:55;;;;;;;12.43;9.20;;;19.60;79.20;;;;;;5056116;28;20199;-86
2022/07/25 00:50:21;;;;;;;10.18;8.43;;;19.60;79.20;;;;;;5056069;28;20255;-86
2022/07/25 00:52:47;;;;;;;9.93;8.18;;;19.60;78.90;;;;;;5055997;28;20613;-86
2022/07/25 00:55:13;;;;;;;10.05;8.70;;;19.60;78.60;;;;;;5037924;28;20192;-85
2022/07/25 00:57:39;;;;;;;9.10;8.20;;;19.60;78.50;;;;;;5057548;28;20271;-85
2022/07/25 01:00:08;;;;;;;9.27;8.38;;;19.60;78.20;;;;;;5057207;28;20192;-85
2022/07/25 01:02:34;;;;;;;11.00;9.48;;;19.50;78.40;;;;;;5039409;28;20179;-85
2022/07/25 01:04:59;;;;;;;11.95;9.20;;;19.50;78.40;;;;;;5057512;28;20192;-85
2022/07/25 01:07:25;;;;;;;12.25;10.35;;;19.50;78.30;;;;;;5039994;28;20176;-85
2022/07/25 01:09:51;;;;;;;9.93;8.95;;;19.50;78.60;;;;;;5039301;28;20650;-85
2022/07/25 01:12:16;;;;;;;12.35;8.77;;;19.50;79.50;;;;;;5039466;28;20191;-85
2022/07/25 01:14:42;;;;;;;10.65;9.65;;;19.30;79.50;;;;;;5040079;28;20192;-85
2022/07/25 01:17:07;;;;;;;11.38;9.38;;;19.30;79.80;;;;;;5039508;28;20577;-85
2022/07/25 01:19:33;;;;;;;12.32;10.35;;;19.30;79.90;;;;;;5057896;28;20229;-85
2022/07/25 01:21:59;;;;;;;13.98;10.45;;;19.20;80.10;;;;;;5058317;28;20172;-85
2022/07/25 01:24:24;;;;;;;10.65;9.52;;;19.20;80.20;;;;;;5057950;28;20191;-85
2022/07/25 01:26:50;;;;;;;11.45;10.18;;;19.10;80.40;;;;;;5039875;28;20172;-85
2022/07/25 01:29:16;;;;;;;11.38;9.77;;;19.10;80.50;;;;;;5058468;28;20186;-85
2022/07/25 01:31:41;;;;;;;12.07;9.65;;;19.10;80.40;;;;;;5058858;28;20533;-85
2022/07/25 01:34:07;;;;;;;10.73;9.63;;;19.00;80.60;;;;;;5039369;28;20241;-86
2022/07/25 01:36:32;;;;;;;12.30;10.98;;;19.00;80.80;;;;;;5058389;28;20163;-85
2022/07/25 01:38:58;;;;;;;11.27;10.13;;;19.00;80.70;;;;;;5039201;28;20200;-85
2022/07/25 01:41:24;;;;;;;14.63;10.48;;;18.90;80.60;;;;;;5039814;28;20250;-85
2022/07/25 01:43:49;;;;;;;12.18;11.00;;;18.90;80.80;;;;;;5057753;28;20190;-85
2022/07/25 01:46:15;;;;;;;14.75;10.00;;;18.90;80.90;;;;;;5038611;28;20183;-86
2022/07/25 01:48:40;;;;;;;12.38;10.20;;;18.80;80.80;;;;;;5039492;28;20203;-85
2022/07/25 01:51:07;;;;;;;11.45;10.25;;;18.80;81.00;;;;;;5039091;28;20638;-85
2022/07/25 01:53:32;;;;;;;13.25;11.07;;;18.80;80.90;;;;;;5057835;28;20221;-86
2022/07/25 01:55:59;;;;;;;16.00;10.30;;;18.80;81.00;;;;;;5057489;28;20271;-85
2022/07/25 01:58:24;;;;;;;11.73;10.52;;;18.80;81.10;;;;;;5057395;28;20192;-85
2022/07/25 02:00:50;;;;;;;11.98;10.73;;;18.80;81.20;;;;;;5057529;28;20187;-85
2022/07/25 02:03:31;;;;;;;11.70;10.48;;;18.90;81.30;;;;;;5057429;28;20539;-85
2022/07/25 02:06:03;;;;;;;13.30;9.57;;;18.80;81.20;;;;;;5057424;28;20153;-85
2022/07/25 02:08:30;;;;;;;14.18;9.77;;;18.90;81.30;;;;;;5057527;28;20171;-85
2022/07/25 02:10:56;;;;;;;14.43;9.38;;;18.90;81.10;;;;;;5039228;28;20176;-85
2022/07/25 02:13:22;;;;;;;12.63;9.00;;;19.00;80.20;;;;;;5039092;28;20184;-85
2022/07/25 02:15:48;;;;;;;11.25;8.50;;;19.00;79.90;;;;;;5056816;28;20183;-85
2022/07/25 02:18:14;;;;;;;11.07;9.07;;;19.10;79.50;;;;;;5038466;28;20208;-85
2022/07/25 02:20:40;;;;;;;11.77;8.52;;;19.10;78.90;;;;;;5038828;28;20266;-85
2022/07/25 02:23:06;;;;;;;11.85;7.95;;;19.10;78.50;;;;;;5038430;28;20700;-86
2022/07/25 02:25:32;;;;;;;10.60;8.45;;;19.10;78.00;;;;;;5055789;28;20562;-86
2022/07/25 02:27:58;;;;;;;9.30;7.60;;;19.10;77.60;;;;;;5038552;28;20183;-85
2022/07/25 02:30:23;;;;;;;8.98;7.03;;;19.10;76.70;;;;;;5038718;28;20257;-85
2022/07/25 02:32:49;;;;;;;14.90;7.30;;;19.20;76.60;;;;;;5056639;28;20183;-85
2022/07/25 02:35:14;;;;;;;9.15;6.22;;;19.20;76.40;;;;;;5056750;28;20221;-85
2022/07/25 02:37:40;;;;;;;14.18;6.35;;;19.20;75.80;;;;;;5039018;28;20659;-85
2022/07/25 02:40:06;;;;;;;8.38;5.70;;;19.20;75.00;;;;;;5037001;28;20634;-85
2022/07/25 02:42:32;;;;;;;12.27;6.55;;;19.20;74.90;;;;;;5036488;28;20637;-85
2022/07/25 02:44:58;;;;;;;7.90;5.88;;;19.30;73.90;;;;;;5036362;28;20223;-85
2022/07/25 02:47:23;;;;;;;7.95;5.63;;;19.30;73.60;;;;;;5035998;28;20172;-85
2022/07/25 02:49:49;;;;;;;8.75;5.65;;;19.30;73.90;;;;;;5036142;28;20187;-85
2022/07/25 02:52:14;;;;;;;10.73;5.78;;;19.30;73.40;;;;;;5036087;28;20645;-85
2022/07/25 02:54:40;;;;;;;9.55;6.20;;;19.30;73.50;;;;;;5036118;28;20191;-85
2022/07/25 02:57:05;;;;;;;9.88;6.55;;;19.30;74.20;;;;;;5035950;28;20218;-85
2022/07/25 02:59:31;;;;;;;11.25;6.50;;;19.30;74.60;;;;;;5053932;28;20176;-85
2022/07/25 03:01:57;;;;;;;7.60;5.97;;;19.30;74.80;;;;;;5035899;28;20168;-85
2022/07/25 03:04:22;;;;;;;9.35;5.97;;;19.20;75.30;;;;;;5053527;28;20192;-85
2022/07/25 03:06:48;;;;;;;7.78;5.68;;;19.20;75.20;;;;;;5035810;28;20179;-85
2022/07/25 03:09:13;;;;;;;11.43;5.80;;;19.20;74.10;;;;;;5035795;28;20184;-85
2022/07/25 03:11:39;;;;;;;9.45;6.13;;;19.20;74.20;;;;;;5035789;28;20172;-85
2022/07/25 03:14:07;;;;;;;8.07;5.63;;;19.20;74.30;;;;;;5053647;28;20194;-85
2022/07/25 03:16:32;;;;;;;6.07;5.47;;;19.20;74.10;;;;;;5035801;28;20182;-85
2022/07/25 03:18:58;;;;;;;7.57;5.68;;;19.20;74.00;;;;;;5053689;28;20275;-85
2022/07/25 03:21:23;;;;;;;7.70;5.80;;;19.20;73.90;;;;;;5035771;28;20595;-85
2022/07/25 03:23:49;;;;;;;8.55;5.35;;;19.20;74.30;;;;;;5035606;28;20195;-85
2022/07/25 03:26:15;;;;;;;6.30;5.32;;;19.20;73.90;;;;;;5035634;28;20172;-85
2022/07/25 03:28:40;;;;;;;8.40;5.40;;;19.20;73.10;;;;;;5035756;28;20262;-85
2022/07/25 03:31:06;;;;;;;8.63;5.43;;;19.20;73.10;;;;;;5053222;28;20172;-85
2022/07/25 03:33:31;;;;;;;9.65;5.00;;;19.20;72.40;;;;;;5035308;28;20254;-85
2022/07/25 03:35:57;;;;;;;7.80;5.05;;;19.20;72.10;;;;;;5053456;28;20168;-85
2022/07/25 03:38:23;;;;;;;7.38;5.03;;;19.30;72.30;;;;;;5035326;28;20290;-85
2022/07/25 03:40:49;;;;;;;5.63;4.90;;;19.50;71.10;;;;;;5035385;28;20655;-85
2022/07/25 03:43:15;;;;;;;5.70;5.10;;;19.60;70.90;;;;;;5035451;28;20204;-85
2022/07/25 03:45:40;;;;;;;12.73;4.80;;;19.70;70.60;;;;;;5035231;28;20198;-85
2022/07/25 03:48:06;;;;;;;8.13;4.25;;;19.80;69.90;;;;;;5053241;28;20200;-85
2022/07/25 03:50:31;;;;;;;5.82;4.10;;;19.90;69.50;;;;;;5035375;28;20669;-85
2022/07/25 03:52:57;;;;;;;4.40;4.00;;;19.90;69.20;;;;;;5035160;28;20258;-85
2022/07/25 03:55:23;;;;;;;5.00;4.50;;;20.00;68.50;;;;;;5052896;28;20192;-85
2022/07/25 03:57:48;;;;;;;7.38;4.32;;;20.00;68.50;;;;;;5035230;28;20199;-85
2022/07/25 04:00:14;;;;;;;9.98;4.95;;;20.20;68.50;;;;;;5035270;28;20178;-86
2022/07/25 04:02:40;;;;;;;6.72;4.05;;;20.20;68.30;;;;;;5035162;28;20214;-86
2022/07/25 04:05:07;;;;;;;7.20;4.30;;;20.30;67.90;;;;;;5053265;28;20183;-85
2022/07/25 04:07:33;;;;;;;7.35;4.20;;;20.30;67.80;;;;;;5053027;28;20176;-85
2022/07/25 04:09:59;;;;;;;4.97;4.20;;;20.30;67.90;;;;;;5053038;28;20172;-85
2022/07/25 04:12:24;;;;;;;5.32;4.28;;;20.30;67.30;;;;;;5035099;28;20222;-85
2022/07/25 04:14:50;;;;;;;11.52;4.50;;;20.30;67.60;;;;;;5036640;28;20622;-85
2022/07/25 04:17:16;;;;;;;7.15;4.20;;;20.20;67.50;;;;;;5038985;28;20215;-85
2022/07/25 04:19:41;;;;;;;7.47;4.78;;;20.20;67.90;;;;;;5038997;28;20172;-85
2022/07/25 04:22:07;;;;;;;6.88;4.32;;;20.10;68.50;;;;;;5056864;28;20168;-85
2022/07/25 04:24:32;;;;;;;4.53;4.13;;;20.00;68.20;;;;;;5056704;28;20669;-85
2022/07/25 04:26:58;;;;;;;5.50;4.47;;;20.00;68.40;;;;;;5038721;28;20180;-86
2022/07/25 04:29:23;;;;;;;4.38;3.97;;;20.00;68.60;;;;;;5038657;28;20258;-85
2022/07/25 04:31:49;;;;;;;8.40;4.72;;;19.90;68.60;;;;;;5038524;28;20275;-85
2022/07/25 04:34:15;;;;;;;5.70;4.30;;;19.90;68.80;;;;;;5056282;28;20203;-86
2022/07/25 04:36:40;;;;;;;5.45;3.80;;;19.90;68.50;;;;;;5056549;28;20164;-85
2022/07/25 04:39:06;;;;;;;4.55;3.65;;;19.90;68.50;;;;;;5056288;28;20192;-85
2022/07/25 04:41:31;;;;;;;4.53;4.00;;;19.90;68.50;;;;;;5056519;28;20653;-85
2022/07/25 04:43:57;;;;;;;6.15;4.25;;;20.00;68.90;;;;;;5038239;28;20192;-85
2022/07/25 04:46:23;;;;;;;6.45;3.97;;;20.00;68.80;;;;;;5038821;28;20584;-85
2022/07/25 04:48:49;;;;;;;8.55;4.47;;;20.00;68.60;;;;;;5038467;28;20550;-85
2022/07/25 04:51:15;;;;;;;15.90;4.43;;;20.00;69.10;;;;;;5038349;28;20261;-86
2022/07/25 04:53:41;;;;;;;5.40;4.32;;;20.10;68.10;;;;;;5038417;28;20261;-85
2022/07/25 04:56:07;;;;;;;7.88;4.47;;;20.10;68.40;;;;;;5056149;28;20187;-85
2022/07/25 04:58:32;;;;;;;6.18;3.78;;;20.10;68.00;;;;;;5038228;28;20195;-86
2022/07/25 05:00:58;;;;;;;9.02;4.22;;;20.20;67.60;;;;;;5038202;28;20260;-85
2022/07/25 05:03:24;;;;;;;7.63;4.10;;;20.20;67.00;;;;;;5038042;28;20169;-85
2022/07/25 05:05:50;;;;;;;6.28;3.75;;;20.30;67.10;;;;;;5037885;28;20180;-85
2022/07/25 05:08:16;;;;;;;5.50;3.97;;;20.30;67.00;;;;;;5038326;28;20190;-85
2022/07/25 05:10:41;;;;;;;8.07;4.03;;;20.30;67.30;;;;;;5037894;28;20180;-85
2022/07/25 05:13:08;;;;;;;8.20;3.95;;;20.30;67.20;;;;;;5038151;28;20175;-85
2022/07/25 05:15:34;;;;;;;4.80;4.03;;;20.40;67.30;;;;;;5038061;28;20196;-85
2022/07/25 05:18:00;;;;;;;4.68;4.15;;;20.50;67.70;;;;;;5056432;28;20199;-85
2022/07/25 05:20:26;;;;;;;5.82;3.80;;;20.60;66.50;;;;;;5037914;28;20176;-85
2022/07/25 05:22:51;;;;;;;7.38;4.35;;;20.70;66.50;;;;;;5037840;28;20177;-85
2022/07/25 05:25:17;;;;;;;5.82;4.25;;;20.70;66.80;;;;;;5037075;28;20670;-85
2022/07/25 05:27:43;;;;;;;7.28;4.00;;;20.80;66.20;;;;;;5055166;28;20179;-85
2022/07/25 05:30:10;;;;;;;5.30;4.07;;;20.80;65.80;;;;;;5037610;28;20680;-85
2022/07/25 05:32:37;;;;;;;6.53;4.25;;;20.90;65.50;;;;;;5055654;28;20259;-85
2022/07/25 05:35:04;;;;;;;7.63;4.07;;;21.00;65.00;;;;;;5055329;28;20689;-85
2022/07/25 05:37:30;;;;;;;7.40;4.28;;;21.00;65.50;;;;;;5055418;28;20204;-85
2022/07/25 05:39:55;;;;;;;8.77;4.38;;;21.00;65.70;;;;;;5055462;28;20198;-85
2022/07/25 05:42:21;;;;;;;6.75;3.97;;;21.00;65.90;;;;;;5037933;28;20676;-85
2022/07/25 05:44:47;;;;;;;5.65;4.10;;;21.00;65.90;;;;;;5037606;28;20253;-85
2022/07/25 05:47:12;;;;;;;7.70;3.85;;;21.20;65.70;;;;;;5037649;28;20272;-85
2022/07/25 05:49:38;;;;;;;4.55;3.38;;;21.20;66.10;;;;;;5037742;28;20176;-85
2022/07/25 05:52:05;;;;;;;5.78;4.40;;;21.30;65.40;;;;;;5037470;28;20523;-85
2022/07/25 05:54:31;;;;;;;7.55;4.05;;;21.50;64.60;;;;;;5055290;28;20223;-85
2022/07/25 05:56:56;;;;;;;11.27;4.53;;;21.70;64.40;;;;;;5055423;28;20512;-85
2022/07/25 05:59:22;;;;;;;5.70;3.50;;;21.70;63.90;;;;;;5037367;28;20552;-85
2022/07/25 06:01:48;;;;;;;5.78;3.70;;;21.80;64.40;;;;;;5037372;28;20191;-85
2022/07/25 06:04:13;;;;;;;4.75;4.07;;;21.80;63.80;;;;;;5055089;28;20192;-85
2022/07/25 06:06:39;;;;;;;6.25;4.00;;;21.80;64.00;;;;;;5038605;28;20168;-86
2022/07/25 06:09:05;;;;;;;6.93;3.70;;;21.80;64.20;;;;;;5037229;28;20180;-86
2022/07/25 06:11:31;;;;;;;7.88;4.18;;;21.90;64.10;;;;;;5036914;28;20719;-86
2022/07/25 06:13:56;;;;;;;4.72;3.85;;;22.10;63.90;;;;;;5036794;28;20195;-85
2022/07/25 06:16:22;;;;;;;22.67;4.25;;;22.30;63.10;;;;;;5036841;28;20175;-86
2022/07/25 06:18:48;;;;;;;4.97;3.88;;;22.30;63.50;;;;;;5054963;28;20199;-87
2022/07/25 06:21:13;;;;;;;4.35;3.95;;;22.30;63.30;;;;;;5037317;28;20192;-87
2022/07/25 06:23:39;;;;;;;4.75;3.40;;;22.50;62.70;;;;;;5036926;28;20184;-87
2022/07/25 06:26:08;;;;;;;6.05;3.53;;;22.60;62.10;;;;;;5054990;28;20167;-87
2022/07/25 06:28:35;;;;;;;4.25;3.67;;;22.70;61.20;;;;;;5054688;28;20172;-87
2022/07/25 06:31:00;;;;;;;6.90;3.80;;;22.70;61.50;;;;;;5054808;28;20176;-87
2022/07/25 06:33:26;;;;;;;5.05;3.97;;;22.70;61.40;;;;;;5036552;28;20526;-85
2022/07/25 06:35:51;;;;;;;5.10;3.65;;;22.70;62.30;;;;;;5053989;28;20172;-86
2022/07/25 06:38:17;;;;;;;4.20;3.90;;;22.70;61.70;;;;;;5053838;28;20563;-86
2022/07/25 06:40:42;;;;;;;6.47;5.50;;;22.90;62.50;;;;;;5053875;28;20242;-86
2022/07/25 06:43:08;;;;;;;4.57;3.67;;;22.90;62.00;;;;;;5054146;28;20180;-86
2022/07/25 06:45:34;;;;;;;6.25;4.10;;;22.90;62.30;;;;;;5036048;28;20199;-86
2022/07/25 06:47:59;;;;;;;6.35;3.95;;;23.00;62.80;;;;;;5036084;28;20550;-86
2022/07/25 06:50:25;;;;;;;5.63;4.35;;;23.10;61.60;;;;;;5053702;28;20172;-85
2022/07/25 06:52:50;;;;;;;5.75;3.70;;;23.20;62.30;;;;;;5035876;28;20184;-86
2022/07/25 06:55:16;;;;;;;6.75;4.03;;;23.20;62.10;;;;;;5035785;28;20196;-86
2022/07/25 06:57:42;;;;;;;4.78;3.58;;;23.30;62.00;;;;;;5036253;28;20227;-86
2022/07/25 07:00:10;;;;;;;4.45;3.40;;;23.30;62.30;;;;;;5053730;28;20179;-85
2022/07/25 07:02:57;;;;;;;5.43;4.70;;;23.30;62.70;;;;;;5035797;28;20548;-85
2022/07/25 07:05:24;;;;;;;9.38;3.85;;;23.30;61.80;;;;;;5036145;28;20191;-85
2022/07/25 07:07:50;;;;;;;4.90;3.75;;;23.40;62.40;;;;;;5036619;28;20175;-85
2022/07/25 07:10:16;;;;;;;6.65;4.10;;;23.50;62.60;;;;;;5035909;28;20183;-84
2022/07/25 07:12:42;;;;;;;4.68;3.90;;;23.60;61.80;;;;;;5053552;28;20256;-84
2022/07/25 07:15:09;;;;;;;5.75;4.22;;;23.70;62.20;;;;;;5036074;28;20631;-86
2022/07/25 07:17:34;;;;;;;5.68;4.10;;;23.90;62.10;;;;;;5036319;28;20742;-84
2022/07/25 07:20:00;;;;;;;6.47;4.10;;;24.10;61.60;;;;;;5053911;28;20176;-84
2022/07/25 07:22:25;;;;;;;8.48;3.80;;;24.20;60.70;;;;;;5036564;28;20253;-85
2022/07/25 07:24:51;;;;;;;5.68;4.05;;;24.20;60.20;;;;;;5038158;28;20207;-85
2022/07/25 07:27:17;;;;;;;4.72;4.07;;;24.30;58.50;;;;;;5035803;28;20680;-84
2022/07/25 07:29:42;;;;;;;14.27;3.97;;;24.40;59.60;;;;;;5053785;28;20586;-86
2022/07/25 07:32:08;;;;;;;6.72;4.18;;;24.40;60.20;;;;;;5053640;28;20176;-85
2022/07/25 07:34:34;;;;;;;7.70;4.18;;;24.40;60.10;;;;;;5053364;28;20203;-84
2022/07/25 07:37:00;;;;;;;6.22;4.68;;;24.50;59.10;;;;;;5035296;28;20183;-85
2022/07/25 07:39:25;;;;;;;6.10;4.53;;;24.50;58.80;;;;;;5035507;28;20179;-85
2022/07/25 07:41:51;;;;;;;8.20;4.72;;;24.50;59.00;;;;;;5053337;28;20195;-85
2022/07/25 07:44:17;;;;;;;6.55;4.85;;;24.60;60.10;;;;;;5053440;28;20202;-84
2022/07/25 07:46:42;;;;;;;7.75;4.72;;;24.70;58.80;;;;;;5035386;28;20175;-85
2022/07/25 07:49:08;;;;;;;7.60;4.10;;;24.70;59.30;;;;;;5053815;28;20247;-85
2022/07/25 07:51:33;;;;;;;6.78;4.20;;;24.80;59.30;;;;;;5039832;28;20721;-84
2022/07/25 07:56:44;;;;;;;4.60;4.18;;;25.20;56.90;;;;;;5057760;28;20195;-85
2022/07/25 07:59:10;;;;;;;5.30;4.45;;;25.30;56.50;;;;;;5039387;28;20608;-84
2022/07/25 08:01:35;;;;;;;7.03;4.90;;;25.50;57.00;;;;;;5039535;28;20266;-85
2022/07/25 08:04:01;;;;;;;6.38;4.35;;;25.80;57.00;;;;;;5057357;28;20218;-84
2022/07/25 08:06:27;;;;;;;5.32;4.53;;;25.90;57.20;;;;;;5039261;28;20217;-84
2022/07/25 08:08:53;;;;;;;7.57;4.60;;;26.10;55.30;;;;;;5039177;28;20274;-85
2022/07/25 08:11:19;;;;;;;6.35;4.35;;;26.30;54.20;;;;;;5057114;28;20172;-85
2022/07/25 08:13:44;;;;;;;8.05;4.50;;;26.40;55.30;;;;;;5039054;28;20762;-85
2022/07/25 08:16:12;;;;;;;7.18;4.18;;;26.50;54.60;;;;;;5056663;28;20176;-85
2022/07/25 08:18:38;;;;;;;5.40;4.57;;;26.70;54.60;;;;;;5038917;28;20196;-85
2022/07/25 08:21:05;;;;;;;7.72;4.55;;;26.70;54.30;;;;;;5057291;28;20271;-85
2022/07/25 08:23:34;;;;;;;6.88;4.72;;;26.80;52.90;;;;;;5059149;28;20539;-85
2022/07/25 08:26:00;;;;;;;7.38;4.45;;;26.80;53.90;;;;;;5040582;28;20677;-86
2022/07/25 08:28:26;;;;;;;11.23;4.90;;;26.70;53.00;;;;;;5058177;28;20549;-85
2022/07/25 08:30:51;;;;;;;10.15;7.60;;;26.60;53.90;;;;;;5040473;28;20180;-85
2022/07/25 08:33:17;;;;;;;8.43;6.85;;;26.70;54.50;;;;;;5042182;28;20188;-85
2022/07/25 08:35:48;;;;;;;11.60;5.25;;;26.60;54.00;;;;;;5039221;28;20208;-84
2022/07/25 08:38:14;;;;;;;5.28;4.68;;;26.50;54.60;;;;;;5057750;28;20680;-85
2022/07/25 08:40:39;;;;;;;7.10;4.50;;;26.50;56.70;;;;;;5042086;28;20176;-85
2022/07/25 08:43:05;;;;;;;5.07;4.45;;;26.40;54.60;;;;;;5056760;28;20516;-85
2022/07/25 08:45:32;;;;;;;8.25;5.13;;;26.50;56.20;;;;;;5056871;28;20188;-85
2022/07/25 08:47:57;;;;;;;9.75;5.28;;;26.40;56.20;;;;;;5039516;28;20176;-86
2022/07/25 08:50:27;;;;;;;5.20;4.70;;;26.30;57.10;;;;;;5056280;28;20613;-86
2022/07/25 08:52:53;;;;;;;6.60;5.97;;;26.40;55.90;;;;;;5056192;28;20172;-86
2022/07/25 08:55:21;;;;;;;7.65;5.25;;;26.70;56.10;;;;;;5038386;28;20203;-86
2022/07/25 08:57:48;;;;;;;5.47;4.90;;;26.90;54.70;;;;;;5038147;28;20282;-86
2022/07/25 09:00:20;;;;;;;7.35;5.22;;;27.20;54.60;;;;;;5055833;28;20588;-86
2022/07/25 09:03:00;;;;;;;6.13;5.32;;;27.20;53.70;;;;;;5056211;28;20176;-86
2022/07/25 09:05:28;;;;;;;5.78;5.18;;;26.90;55.70;;;;;;5056738;28;20188;-86
2022/07/25 09:07:55;;;;;;;6.15;5.22;;;26.90;55.40;;;;;;5056277;28;20654;-86
2022/07/25 09:10:25;;;;;;;8.30;4.80;;;26.90;54.40;;;;;;5037990;28;20270;-86
2022/07/25 09:12:54;;;;;;;7.03;4.97;;;26.90;55.00;;;;;;5055789;28;20172;-86
2022/07/25 09:15:28;;;;;;;8.43;4.80;;;26.90;55.00;;;;;;5038024;28;20226;-85
2022/07/25 09:17:54;;;;;;;7.63;5.13;;;27.00;54.30;;;;;;5055952;28;20244;-86
2022/07/25 09:20:21;;;;;;;6.97;5.25;;;27.20;53.70;;;;;;5055532;28;20665;-86
2022/07/25 09:22:47;;;;;;;10.38;5.25;;;27.50;54.50;;;;;;5038095;28;20254;-86
2022/07/25 09:25:24;;;;;;;8.18;5.40;;;27.50;54.80;;;;;;5055434;28;20183;-86
2022/07/25 09:27:50;;;;;;;6.75;5.03;;;27.50;53.00;;;;;;5037883;28;20176;-87
2022/07/25 09:30:16;;;;;;;5.95;5.13;;;27.60;52.90;;;;;;5038353;28;20729;-86
2022/07/25 09:32:42;;;;;;;14.80;4.97;;;27.70;52.90;;;;;;5037599;28;20673;-86
2022/07/25 09:35:08;;;;;;;6.28;5.03;;;27.90;52.90;;;;;;5037828;28;20211;-86
2022/07/25 09:37:33;;;;;;;5.65;4.88;;;28.10;52.50;;;;;;5038287;28;20247;-86
2022/07/25 09:39:59;;;;;;;6.45;4.70;;;28.10;51.60;;;;;;5040156;28;20164;-86
2022/07/25 09:42:26;;;;;;;7.05;4.63;;;28.30;52.90;;;;;;5056406;28;20172;-86
2022/07/25 09:45:02;;;;;;;8.23;5.35;;;28.50;52.10;;;;;;5037548;28;20283;-86
2022/07/25 09:47:29;;;;;;;8.85;5.65;;;28.60;52.00;;;;;;5037167;28;20176;-86
2022/07/25 09:49:55;;;;;;;8.18;5.22;;;28.40;52.00;;;;;;5037391;28;20553;-86
2022/07/25 09:52:20;;;;;;;5.70;5.05;;;28.20;50.70;;;;;;5037127;28;20172;-86
2022/07/25 09:54:46;;;;;;;8.65;6.35;;;28.20;51.30;;;;;;5037076;28;20565;-87
2022/07/25 09:57:12;;;;;;;8.45;5.68;;;28.20;52.70;;;;;;5054810;28;20183;-86
2022/07/25 09:59:38;;;;;;;8.88;5.38;;;28.20;53.00;;;;;;5037001;28;20271;-86
2022/07/25 10:02:18;;;;;;;6.82;5.32;;;28.20;53.70;;;;;;5036945;28;20168;-87
2022/07/25 10:04:55;;;;;;;7.78;5.28;;;28.20;52.40;;;;;;5037100;28;20191;-87
2022/07/25 10:07:22;;;;;;;6.15;5.20;;;28.10;53.60;;;;;;5055070;28;20166;-86
2022/07/25 10:09:50;;;;;;;7.85;5.20;;;28.00;52.50;;;;;;5054835;28;20198;-86
2022/07/25 10:12:20;;;;;;;6.82;5.45;;;28.00;53.40;;;;;;5036195;28;20176;-87
2022/07/25 10:15:09;;;;;;;12.13;5.30;;;27.90;52.70;;;;;;5056058;28;20192;-86
2022/07/25 10:17:36;;;;;;;7.68;5.18;;;27.90;52.80;;;;;;5036663;28;20756;-86
2022/07/25 10:20:05;;;;;;;7.20;5.72;;;28.00;55.00;;;;;;5054415;28;20681;-85
2022/07/25 10:22:42;;;;;;;7.82;6.18;;;28.00;54.30;;;;;;5036526;28;20211;-86
2022/07/25 10:25:17;;;;;;;8.65;5.30;;;28.10;54.20;;;;;;5036689;28;20199;-86
2022/07/25 10:27:48;;;;;;;8.15;5.10;;;28.20;54.20;;;;;;5037001;28;20175;-84
2022/07/25 10:30:25;;;;;;;9.00;5.63;;;28.30;53.90;;;;;;5036977;28;20190;-84
2022/07/25 10:32:58;;;;;;;5.57;5.05;;;28.40;53.90;;;;;;5054814;28;20199;-84
2022/07/25 10:35:26;;;;;;;9.27;5.40;;;28.40;53.70;;;;;;5036627;28;20212;-84
2022/07/25 10:37:53;;;;;;;6.38;4.90;;;28.40;53.40;;;;;;5037163;28;20200;-84
2022/07/25 10:40:52;;;;;;;5.53;5.03;;;28.50;53.20;;;;;;5039403;28;20172;-84
2022/07/25 10:43:21;;;;;;;7.43;5.45;;;28.70;53.60;;;;;;5035800;28;20184;-84
2022/07/25 10:45:57;;;;;;;11.95;5.38;;;28.90;52.40;;;;;;5054318;28;20192;-84
2022/07/25 10:48:32;;;;;;;6.45;5.35;;;28.80;52.90;;;;;;5055954;28;20171;-84
2022/07/25 10:51:11;;;;;;;13.90;6.18;;;28.70;52.40;;;;;;5055073;28;20194;-84
2022/07/25 10:53:43;;;;;;;6.85;5.03;;;28.70;51.20;;;;;;5036274;28;20580;-84
2022/07/25 10:56:20;;;;;;;9.13;5.40;;;28.70;52.90;;;;;;5037055;28;20179;-84
2022/07/25 10:58:58;;;;;;;6.05;4.90;;;28.70;50.10;;;;;;5054032;28;20237;-84
2022/07/25 11:01:29;;;;;;;5.43;4.80;;;28.80;52.60;;;;;;5036055;28;20176;-83
2022/07/25 11:04:01;;;;;;;8.60;4.47;;;29.20;48.80;;;;;;5053946;28;20196;-84
2022/07/25 11:06:35;;;;;;;5.85;4.97;;;29.40;50.00;;;;;;5036419;28;20168;-84
2022/07/25 11:09:03;;;;;;;6.53;5.18;;;29.40;51.00;;;;;;5036095;28;20176;-84
2022/07/25 11:11:50;;;;;;;8.18;5.30;;;29.60;52.30;;;;;;5036315;28;20176;-85
2022/07/25 11:14:24;;;;;;;8.95;5.80;;;29.80;51.50;;;;;;5036115;28;20200;-85
2022/07/25 11:16:53;;;;;;;5.80;5.07;;;29.80;51.20;;;;;;5036208;28;20517;-84
2022/07/25 11:19:25;;;;;;;9.13;5.68;;;29.70;49.80;;;;;;5052125;28;20290;-84
2022/07/25 11:21:56;;;;;;;12.68;5.55;;;29.80;49.50;;;;;;5054156;28;20164;-84
2022/07/25 11:24:34;;;;;;;7.72;5.30;;;29.70;48.10;;;;;;5035729;28;20200;-84
2022/07/25 11:27:00;;;;;;;7.50;5.30;;;29.90;50.90;;;;;;5035690;28;20164;-84
2022/07/25 11:29:26;;;;;;;7.00;5.25;;;30.00;50.00;;;;;;5035773;28;20638;-84
2022/07/25 11:32:00;;;;;;;6.25;5.18;;;30.00;50.20;;;;;;5035798;28;20185;-84
2022/07/25 11:34:29;;;;;;;6.30;5.05;;;30.20;51.40;;;;;;5035537;28;20215;-85
2022/07/25 11:36:56;;;;;;;6.40;5.07;;;30.60;48.70;;;;;;5035367;28;20179;-85
2022/07/25 11:39:30;;;;;;;8.25;4.43;;;30.40;49.40;;;;;;5035494;28;20200;-85
2022/07/25 11:42:03;;;;;;;16.98;8.40;;;30.60;48.30;;;;;;5053378;28;20176;-85
2022/07/25 11:44:38;;;;;;;9.45;5.18;;;30.90;48.30;;;;;;5035472;28;20282;-85
2022/07/25 11:47:05;;;;;;;8.90;4.88;;;31.10;47.50;;;;;;5035551;28;20206;-85
2022/07/25 11:49:42;;;;;;;6.13;4.60;;;31.00;47.70;;;;;;5035498;28;20176;-85
2022/07/25 11:52:24;;;;;;;7.10;4.85;;;31.00;46.40;;;;;;5035503;28;20172;-86
2022/07/25 11:55:01;;;;;;;7.85;4.95;;;30.80;46.80;;;;;;5035885;28;20725;-84
2022/07/25 11:57:32;;;;;;;5.55;4.78;;;30.90;46.90;;;;;;5036322;28;20206;-85
2022/07/25 12:00:00;;;;;;;5.00;4.50;;;31.10;46.70;;;;;;5035722;28;20167;-85
2022/07/25 12:02:26;;;;;;;6.15;4.45;;;31.20;45.60;;;;;;5053488;28;20172;-85
2022/07/25 12:05:04;;;;;;;5.40;4.90;;;31.10;44.40;;;;;;5054027;28;20196;-85
2022/07/25 12:07:50;;;;;;;7.38;4.70;;;30.70;45.40;;;;;;5053260;28;20202;-85
2022/07/25 12:10:22;;;;;;;6.88;4.70;;;30.40;46.80;;;;;;5053751;28;20635;-85
2022/07/25 12:12:49;;;;;;;9.55;4.65;;;30.00;46.80;;;;;;5053779;28;20179;-85
2022/07/25 12:15:36;;;;;;;6.10;5.15;;;30.40;48.20;;;;;;5036103;28;20199;-85
2022/07/25 12:18:02;;;;;;;5.88;4.65;;;30.50;46.50;;;;;;5052698;28;20219;-86
2022/07/25 12:20:31;;;;;;;5.22;4.35;;;30.60;45.60;;;;;;5035450;28;20172;-85
2022/07/25 12:23:07;;;;;;;4.60;4.20;;;30.50;45.80;;;;;;5035278;28;20262;-85
2022/07/25 12:25:35;;;;;;;8.25;5.00;;;30.50;47.90;;;;;;5053100;28;20184;-85
2022/07/25 12:28:01;;;;;;;7.53;4.93;;;30.50;46.80;;;;;;5053172;28;20179;-84
2022/07/25 12:30:29;;;;;;;8.68;5.32;;;30.40;48.70;;;;;;5035292;28;20243;-84
2022/07/25 12:32:55;;;;;;;12.18;4.97;;;29.70;49.00;;;;;;5035168;28;20646;-84
2022/07/25 12:35:21;;;;;;;7.93;5.28;;;29.50;48.40;;;;;;5053886;28;20219;-84
2022/07/25 12:37:47;;;;;;;7.18;5.10;;;29.30;47.00;;;;;;5038874;28;20231;-83
2022/07/25 12:40:13;;;;;;;7.60;5.18;;;29.20;48.40;;;;;;5056873;28;20200;-85
2022/07/25 12:42:39;;;;;;;10.43;5.65;;;29.00;49.10;;;;;;5038870;28;20165;-84
2022/07/25 12:45:07;;;;;;;5.53;4.97;;;28.90;48.50;;;;;;5038767;28;20295;-84
2022/07/25 12:47:33;;;;;;;5.10;4.70;;;28.90;49.20;;;;;;5056661;28;20180;-85